Search for airport 
image banner adimage banner adimage banner ad
image banner ad

13PS - St Luke's/Pennstar Flight Center

Located in Nazareth, United States

ICAO - 13PS, IATA -

Data provided by Airmate  

General information

Coordinates: N40°44'21" W75°20'2"
Elevation is 488 feet MSL.
 
View others Airports in Pennsylvania

Operational data

Special qualification required
Current time UTC:
Current local time:
Weather at : KABE - Lehigh Valley Intl ( 13 km )
METAR: KABE 182151Z 26011G17KT 230V290 10SM CLR 26/06 A3024 RMK AO2 SLP238 T02610061
TAF: KABE 181732Z 1818/1918 25007KT P6SM FEW250 FM190000 VRB04KT P6SM SKC
View NOTAMs / SUP AIP / TFR affecting this airport [VIEW]
Communications frequencies: [VIEW]

Runways:

Airport contact information

Address: Nazareth United States

Satellite view of 13PS